Time;durP1;ratioP1;P1;durP2;ratioP2;P2;SDS_P1;SDS_P2;PMS_P1;PMS_P2;Temp;Humidity;BMP_temperature;BMP_pressure;BME280_temperature;BME280_humidity;BME280_pressure;Samples;Min_cycle;Max_cycle;Signal;HPM_P1;HPM_P2
2021/03/07 00:01:31;;;;;;;2.03;0.50;;;9.30;99.90;;;;;;5093020;28;20207;-83
2021/03/07 00:04:02;;;;;;;1.27;0.50;;;9.10;99.90;;;;;;5111576;28;20229;-83
2021/03/07 00:06:37;;;;;;;1.40;0.60;;;8.90;99.90;;;;;;5113396;28;20732;-81
2021/03/07 00:09:07;;;;;;;2.70;0.43;;;8.80;99.90;;;;;;5116450;28;20203;-82
2021/03/07 00:11:39;;;;;;;1.50;0.40;;;8.60;99.90;;;;;;5121078;28;20210;-81
2021/03/07 00:14:09;;;;;;;0.87;0.40;;;8.60;99.90;;;;;;5115337;28;20239;-82
2021/03/07 00:16:40;;;;;;;1.13;0.50;;;8.50;99.90;;;;;;5121963;28;20191;-82
2021/03/07 00:19:11;;;;;;;2.07;0.57;;;8.40;99.90;;;;;;5118730;28;20211;-83
2021/03/07 00:21:42;;;;;;;1.40;0.50;;;8.30;99.90;;;;;;5109772;28;20210;-82
2021/03/07 00:24:13;;;;;;;2.00;0.50;;;8.30;99.90;;;;;;5083228;28;20239;-81
2021/03/07 00:26:46;;;;;;;2.87;0.43;;;8.30;99.90;;;;;;5111128;28;20595;-81
2021/03/07 00:29:17;;;;;;;1.90;0.60;;;8.30;99.90;;;;;;5110802;28;20228;-82
2021/03/07 00:31:48;;;;;;;5.13;0.63;;;8.30;99.90;;;;;;5110503;28;20576;-82
2021/03/07 00:34:18;;;;;;;3.17;0.83;;;8.40;99.90;;;;;;5109867;28;20201;-83
2021/03/07 00:36:48;;;;;;;1.63;0.50;;;8.50;99.90;;;;;;5110443;28;20202;-82
2021/03/07 00:39:18;;;;;;;2.07;0.50;;;8.40;99.90;;;;;;5088656;28;20203;-82
2021/03/07 00:41:50;;;;;;;3.13;0.67;;;8.40;99.90;;;;;;5110356;28;20236;-83
2021/03/07 00:44:21;;;;;;;4.00;0.60;;;8.30;99.90;;;;;;5110674;28;20214;-83
2021/03/07 00:46:52;;;;;;;4.77;0.77;;;8.40;99.90;;;;;;5113585;28;20198;-83
2021/03/07 00:49:27;;;;;;;1.80;0.50;;;8.40;99.90;;;;;;5106877;28;20229;-83
2021/03/07 00:51:58;;;;;;;2.03;0.60;;;8.50;99.90;;;;;;5119250;28;20206;-82
2021/03/07 00:54:33;;;;;;;0.83;0.47;;;8.60;99.90;;;;;;5109485;28;20255;-84
2021/03/07 00:57:06;;;;;;;2.40;0.70;;;8.60;99.90;;;;;;5106301;28;20206;-83
2021/03/07 00:59:37;;;;;;;3.63;0.67;;;8.60;99.90;;;;;;5104686;28;20260;-83
2021/03/07 01:02:08;;;;;;;5.13;0.93;;;8.60;99.90;;;;;;5084195;28;20263;-83
2021/03/07 01:04:39;;;;;;;3.63;0.63;;;8.50;99.90;;;;;;5097690;28;20209;-83
2021/03/07 01:07:09;;;;;;;4.67;0.67;;;8.60;99.90;;;;;;5108134;28;20603;-83
2021/03/07 01:09:40;;;;;;;5.30;0.90;;;8.50;99.90;;;;;;5114671;28;20202;-82
2021/03/07 01:12:12;;;;;;;2.00;0.70;;;8.50;99.90;;;;;;5100627;28;20229;-82
2021/03/07 01:14:43;;;;;;;2.90;0.80;;;8.50;99.90;;;;;;5112104;28;20281;-82
2021/03/07 01:17:14;;;;;;;2.60;0.67;;;8.50;99.90;;;;;;5116006;28;20194;-82
2021/03/07 01:19:45;;;;;;;1.87;0.57;;;8.40;99.90;;;;;;5114669;28;20279;-82
2021/03/07 01:22:16;;;;;;;5.37;1.33;;;8.40;99.90;;;;;;5116978;28;20270;-83
2021/03/07 01:24:47;;;;;;;4.13;0.57;;;8.40;99.90;;;;;;5116603;28;20662;-84
2021/03/07 01:27:19;;;;;;;2.83;0.83;;;8.40;99.90;;;;;;5121935;28;20190;-84
2021/03/07 01:29:50;;;;;;;2.60;0.87;;;8.30;99.90;;;;;;5139548;28;20185;-84
2021/03/07 01:32:20;;;;;;;4.30;0.83;;;8.20;99.90;;;;;;5138327;28;20255;-83
2021/03/07 01:34:51;;;;;;;4.37;0.70;;;8.20;99.90;;;;;;5129725;28;20198;-82
2021/03/07 01:37:22;;;;;;;4.73;1.10;;;8.20;99.90;;;;;;5122543;28;20205;-82
2021/03/07 01:39:53;;;;;;;2.47;1.03;;;8.10;99.90;;;;;;5123558;28;20734;-80
2021/03/07 01:42:26;;;;;;;7.83;1.60;;;8.10;99.90;;;;;;4758985;28;9999688;-85
2021/03/07 01:44:57;;;;;;;4.00;2.00;;;8.10;99.90;;;;;;5106668;28;20287;-82
2021/03/07 01:47:32;;;;;;;2.47;1.37;;;8.10;99.90;;;;;;5110244;28;20214;-84
2021/03/07 01:50:05;;;;;;;4.37;1.20;;;8.00;99.90;;;;;;5107796;28;20276;-83
2021/03/07 01:52:36;;;;;;;4.37;1.40;;;7.90;99.90;;;;;;5113274;28;20211;-82
2021/03/07 01:55:08;;;;;;;3.13;0.93;;;7.90;99.90;;;;;;5093261;28;20858;-83
2021/03/07 01:57:40;;;;;;;2.73;0.83;;;7.80;99.90;;;;;;5094893;28;20361;-81
2021/03/07 02:00:13;;;;;;;3.63;0.70;;;7.60;99.90;;;;;;5112735;28;20662;-84
2021/03/07 02:02:44;;;;;;;2.57;0.63;;;7.50;99.90;;;;;;5101525;28;20228;-83
2021/03/07 02:05:17;;;;;;;4.10;0.70;;;7.50;99.90;;;;;;5113816;28;20213;-84
2021/03/07 02:07:48;;;;;;;1.17;0.70;;;7.40;99.90;;;;;;5113583;28;20697;-85
2021/03/07 02:10:20;;;;;;;2.57;0.70;;;7.40;99.90;;;;;;5115783;28;20206;-85
2021/03/07 02:12:54;;;;;;;1.53;0.70;;;7.30;99.90;;;;;;5103052;28;20198;-85
2021/03/07 02:15:26;;;;;;;1.43;0.57;;;7.30;99.90;;;;;;5113130;28;20618;-84
2021/03/07 02:17:57;;;;;;;1.70;0.80;;;7.30;99.90;;;;;;5114794;28;20202;-84
2021/03/07 02:20:29;;;;;;;1.90;0.60;;;7.20;99.90;;;;;;5114092;28;20208;-84
2021/03/07 02:23:04;;;;;;;3.07;0.90;;;7.20;99.90;;;;;;5099342;28;20237;-85
2021/03/07 02:25:38;;;;;;;1.53;0.67;;;7.20;99.90;;;;;;5111996;28;20202;-85
2021/03/07 02:28:10;;;;;;;2.20;0.57;;;7.20;99.90;;;;;;5102831;28;20662;-85
2021/03/07 02:30:41;;;;;;;1.00;0.70;;;7.20;99.90;;;;;;5112201;27;20203;-85
2021/03/07 02:33:19;;;;;;;0.77;0.53;;;7.10;99.90;;;;;;5111543;28;20252;-88
2021/03/07 02:35:57;;;;;;;2.43;0.70;;;7.10;99.90;;;;;;5109000;28;20214;-88
2021/03/07 02:38:28;;;;;;;4.13;0.87;;;7.00;99.90;;;;;;5095475;28;20249;-90
2021/03/07 02:41:02;;;;;;;1.70;0.90;;;7.00;99.90;;;;;;5111304;28;20220;-90
2021/03/07 02:43:38;;;;;;;2.17;1.10;;;7.10;99.90;;;;;;5112449;28;20239;-92
2021/03/07 02:46:12;;;;;;;2.87;1.33;;;7.10;99.90;;;;;;5095215;28;20263;-88
2021/03/07 02:48:46;;;;;;;2.87;1.20;;;7.00;99.90;;;;;;5104135;28;20254;-90
2021/03/07 02:51:17;;;;;;;3.43;1.03;;;7.00;99.90;;;;;;5102480;28;20206;-89
2021/03/07 02:53:48;;;;;;;2.30;0.80;;;7.00;99.90;;;;;;5096035;28;20716;-91
2021/03/07 02:56:30;;;;;;;3.40;0.70;;;7.00;99.90;;;;;;5116653;28;20237;-91
2021/03/07 02:59:07;;;;;;;3.47;0.83;;;7.00;99.90;;;;;;5108148;28;20310;-88
2021/03/07 03:01:39;;;;;;;2.40;0.90;;;7.00;99.90;;;;;;5107109;28;20197;-89
2021/03/07 03:04:10;;;;;;;0.77;0.50;;;7.00;99.90;;;;;;5105546;28;20225;-89
2021/03/07 03:06:43;;;;;;;1.50;0.90;;;7.00;99.90;;;;;;5111898;28;20267;-92
2021/03/07 03:09:14;;;;;;;1.77;0.70;;;7.00;99.90;;;;;;5116960;28;20634;-93
2021/03/07 03:11:48;;;;;;;4.07;0.80;;;6.90;99.90;;;;;;5102759;28;20305;-92
2021/03/07 03:14:20;;;;;;;3.80;0.87;;;6.90;99.90;;;;;;5119279;28;20208;-93
2021/03/07 03:16:53;;;;;;;4.33;1.10;;;6.90;99.90;;;;;;5115166;28;20229;-91
2021/03/07 03:19:27;;;;;;;2.60;0.87;;;7.00;99.90;;;;;;5105449;28;20240;-90
2021/03/07 03:21:58;;;;;;;3.00;0.80;;;6.90;99.90;;;;;;5115595;28;20218;-92
2021/03/07 03:24:32;;;;;;;1.43;0.90;;;6.90;99.90;;;;;;5114306;28;20230;-88
2021/03/07 03:27:06;;;;;;;5.57;1.00;;;6.90;99.90;;;;;;5118214;27;20208;-91
2021/03/07 03:29:41;;;;;;;2.40;1.00;;;7.00;99.90;;;;;;5099235;28;20228;-89
2021/03/07 03:32:12;;;;;;;3.97;1.20;;;7.00;99.90;;;;;;5107250;28;20231;-95
2021/03/07 03:35:07;;;;;;;2.13;1.00;;;7.00;99.90;;;;;;4954777;27;4926746;-88
2021/03/07 03:37:40;;;;;;;3.80;1.00;;;6.90;99.90;;;;;;5094434;28;20213;-90
2021/03/07 03:40:17;;;;;;;4.73;1.00;;;6.90;99.90;;;;;;5097502;28;20195;-89
2021/03/07 03:42:58;;;;;;;3.07;1.47;;;7.00;99.90;;;;;;5104214;28;20247;-89
2021/03/07 03:45:32;;;;;;;2.73;1.77;;;6.90;99.90;;;;;;5108349;28;20207;-94
2021/03/07 03:48:06;;;;;;;3.10;1.67;;;7.00;99.90;;;;;;5111326;28;20199;-92
2021/03/07 03:50:43;;;;;;;1.73;1.30;;;7.00;99.90;;;;;;5122867;28;20311;-92
2021/03/07 03:53:19;;;;;;;4.73;2.00;;;7.00;99.90;;;;;;5122008;28;20243;-93
2021/03/07 03:55:55;;;;;;;4.73;1.37;;;6.90;99.90;;;;;;5121625;28;20277;-92
2021/03/07 03:58:28;;;;;;;5.13;1.57;;;6.90;99.90;;;;;;5114450;28;20241;-88
2021/03/07 04:01:05;;;;;;;2.40;1.50;;;6.90;99.90;;;;;;5103308;28;20202;-88
2021/03/07 04:03:41;;;;;;;4.73;1.70;;;6.80;99.90;;;;;;5116373;28;20200;-88
2021/03/07 04:06:14;;;;;;;4.30;1.47;;;6.80;99.90;;;;;;5112437;28;20374;-90
2021/03/07 04:08:45;;;;;;;3.73;1.50;;;6.80;99.90;;;;;;5110734;28;20185;-89
2021/03/07 04:11:15;;;;;;;2.43;1.40;;;6.80;99.90;;;;;;5112738;28;20202;-88
2021/03/07 04:13:46;;;;;;;2.07;1.87;;;6.90;99.90;;;;;;5094751;28;20233;-87
2021/03/07 04:16:19;;;;;;;3.23;1.80;;;6.80;99.90;;;;;;5095113;28;20381;-88
2021/03/07 04:18:51;;;;;;;3.67;1.90;;;6.90;99.90;;;;;;5104215;28;20197;-89
2021/03/07 04:21:25;;;;;;;3.83;1.70;;;6.80;99.90;;;;;;5113481;28;20206;-88
2021/03/07 04:23:56;;;;;;;3.77;2.27;;;6.80;99.90;;;;;;5092079;28;20278;-88
2021/03/07 04:26:27;;;;;;;4.60;1.80;;;6.80;99.90;;;;;;5092317;28;20217;-88
2021/03/07 04:28:58;;;;;;;3.90;1.90;;;6.80;99.90;;;;;;5082418;28;20297;-89
2021/03/07 04:31:29;;;;;;;3.37;1.77;;;6.80;99.90;;;;;;5094867;28;20195;-89
2021/03/07 04:34:00;;;;;;;3.13;1.60;;;6.80;99.90;;;;;;5071969;28;20715;-88
2021/03/07 04:36:37;;;;;;;4.13;1.80;;;6.80;99.90;;;;;;5094792;28;20205;-86
2021/03/07 04:39:09;;;;;;;4.67;1.60;;;6.80;99.90;;;;;;5101065;28;20666;-86
2021/03/07 04:41:41;;;;;;;4.67;2.33;;;6.70;99.90;;;;;;5103129;28;20272;-86
2021/03/07 04:44:11;;;;;;;2.47;2.00;;;6.60;99.90;;;;;;5100673;28;20229;-87
2021/03/07 04:46:42;;;;;;;3.67;2.23;;;6.60;99.90;;;;;;5095942;28;20213;-86
2021/03/07 04:49:13;;;;;;;3.33;2.00;;;6.60;99.90;;;;;;5076141;28;20231;-87
2021/03/07 04:51:45;;;;;;;4.03;2.30;;;6.50;99.90;;;;;;5076584;28;20636;-86
2021/03/07 04:54:16;;;;;;;5.13;2.53;;;6.40;99.90;;;;;;5074519;28;20269;-87
2021/03/07 04:56:47;;;;;;;3.50;2.43;;;6.40;99.90;;;;;;5078195;28;20235;-88
2021/03/07 04:59:18;;;;;;;4.23;2.57;;;6.30;99.90;;;;;;5043904;28;20226;-87
2021/03/07 05:01:49;;;;;;;3.47;2.33;;;6.30;99.90;;;;;;5077453;28;20317;-86
2021/03/07 05:04:22;;;;;;;5.77;2.70;;;6.20;99.90;;;;;;5096555;28;20218;-87
2021/03/07 05:07:07;;;;;;;3.77;2.13;;;6.10;99.90;;;;;;5096378;28;20229;-88
2021/03/07 05:09:41;;;;;;;3.10;1.50;;;6.00;99.90;;;;;;5088836;28;20205;-89
2021/03/07 05:12:13;;;;;;;3.40;1.47;;;5.90;99.90;;;;;;5086162;28;20206;-89
2021/03/07 05:15:03;;;;;;;3.83;2.07;;;5.90;99.90;;;;;;5098278;28;20812;-89
2021/03/07 05:17:36;;;;;;;3.43;2.03;;;5.80;99.90;;;;;;5105372;28;20199;-89
2021/03/07 05:20:08;;;;;;;4.70;2.00;;;5.70;99.90;;;;;;5106254;28;20209;-90
2021/03/07 05:22:41;;;;;;;3.70;1.30;;;5.70;99.90;;;;;;5102169;28;20199;-89
2021/03/07 05:25:12;;;;;;;3.27;1.80;;;5.60;99.90;;;;;;5094565;28;20265;-88
2021/03/07 05:27:44;;;;;;;3.53;2.17;;;5.60;99.90;;;;;;5088488;28;20202;-88
2021/03/07 05:30:18;;;;;;;5.73;2.10;;;5.50;99.90;;;;;;5083436;28;20211;-87
2021/03/07 05:32:52;;;;;;;4.67;2.00;;;5.40;99.90;;;;;;5099768;28;20543;-88
2021/03/07 05:35:24;;;;;;;4.17;2.50;;;5.40;99.90;;;;;;5094649;28;20200;-87
2021/03/07 05:37:58;;;;;;;4.03;2.60;;;5.30;99.90;;;;;;5080873;28;20309;-88
2021/03/07 05:40:29;;;;;;;4.67;3.07;;;5.30;99.90;;;;;;5084319;28;20288;-86
2021/03/07 05:43:01;;;;;;;6.37;4.20;;;5.20;99.90;;;;;;5097195;28;20241;-86
2021/03/07 05:45:34;;;;;;;5.23;3.37;;;5.20;99.90;;;;;;4742722;28;10000221;-89
2021/03/07 05:48:06;;;;;;;4.60;3.50;;;5.10;99.90;;;;;;5085829;28;20211;-90
2021/03/07 05:50:38;;;;;;;5.53;3.80;;;5.20;99.90;;;;;;5086879;28;20212;-90
2021/03/07 05:53:10;;;;;;;4.30;3.40;;;5.10;99.90;;;;;;5082856;28;20203;-93
2021/03/07 05:55:43;;;;;;;6.33;3.80;;;5.10;99.90;;;;;;5090092;28;20203;-90
2021/03/07 05:58:16;;;;;;;8.93;4.10;;;5.00;99.90;;;;;;5069994;28;20231;-94
2021/03/07 06:00:47;;;;;;;5.13;4.03;;;5.00;99.90;;;;;;5087695;28;20196;-91
2021/03/07 06:03:21;;;;;;;6.70;4.60;;;5.00;99.90;;;;;;5087989;28;20210;-89
2021/03/07 06:05:51;;;;;;;6.93;4.57;;;4.90;99.90;;;;;;5095564;28;20218;-90
2021/03/07 06:08:25;;;;;;;8.70;4.80;;;4.90;99.90;;;;;;5094935;28;20233;-89
2021/03/07 06:10:57;;;;;;;5.33;3.60;;;4.80;99.90;;;;;;5081495;28;20207;-92
2021/03/07 06:13:43;;;;;;;7.10;3.93;;;4.80;99.90;;;;;;5095931;28;20253;-92
2021/03/07 06:16:15;;;;;;;6.43;3.50;;;4.80;99.90;;;;;;5088527;28;20199;-91
2021/03/07 06:18:47;;;;;;;6.33;4.40;;;4.80;99.90;;;;;;5075560;28;20199;-90
2021/03/07 06:21:31;;;;;;;6.07;4.67;;;4.80;99.90;;;;;;5080460;28;20211;-89
2021/03/07 06:24:06;;;;;;;9.03;6.07;;;4.80;99.90;;;;;;5094269;28;20659;-89
2021/03/07 06:26:37;;;;;;;6.07;4.27;;;4.80;99.90;;;;;;5057192;28;20619;-88
2021/03/07 06:29:09;;;;;;;10.70;6.57;;;4.80;99.90;;;;;;5075277;28;20214;-89
2021/03/07 06:31:41;;;;;;;14.60;10.70;;;4.70;99.90;;;;;;5077441;28;20212;-88
2021/03/07 06:34:14;;;;;;;9.47;6.83;;;4.70;99.90;;;;;;5086442;28;20722;-88
2021/03/07 06:36:45;;;;;;;11.23;7.77;;;4.70;99.90;;;;;;5079312;28;20296;-87
2021/03/07 06:39:17;;;;;;;10.83;7.90;;;4.70;99.90;;;;;;5096858;28;20663;-86
2021/03/07 06:41:48;;;;;;;8.77;5.73;;;4.70;99.90;;;;;;5097419;28;20222;-86
2021/03/07 06:44:19;;;;;;;10.97;5.97;;;4.70;99.90;;;;;;5100044;28;20281;-87
2021/03/07 06:46:51;;;;;;;11.00;5.90;;;4.60;99.90;;;;;;5113316;28;20187;-89
2021/03/07 06:49:27;;;;;;;22.00;12.73;;;4.60;99.90;;;;;;5116183;28;20214;-88
2021/03/07 06:52:13;;;;;;;23.23;15.03;;;4.50;99.90;;;;;;5115485;28;20194;-89
2021/03/07 06:55:02;;;;;;;19.23;11.23;;;4.50;99.90;;;;;;5112882;28;20214;-90
2021/03/07 06:57:33;;;;;;;14.00;8.43;;;4.50;99.90;;;;;;5098723;28;20191;-91
2021/03/07 07:00:08;;;;;;;18.53;11.43;;;4.50;99.90;;;;;;5091776;28;20238;-87
2021/03/07 07:02:42;;;;;;;17.17;10.60;;;4.50;99.90;;;;;;5090452;28;20690;-86
2021/03/07 07:05:35;;;;;;;24.90;13.20;;;4.50;99.90;;;;;;5075429;28;20202;-87
2021/03/07 07:08:35;;;;;;;16.53;7.47;;;4.50;99.90;;;;;;5075848;28;20196;-87
2021/03/07 07:11:12;;;;;;;15.00;7.70;;;4.50;99.90;;;;;;5077787;28;20212;-87
2021/03/07 07:13:48;;;;;;;14.27;7.37;;;4.60;99.90;;;;;;5076545;28;20254;-87
2021/03/07 07:16:36;;;;;;;9.83;4.97;;;4.60;99.90;;;;;;5078828;28;20200;-87
2021/03/07 07:19:08;;;;;;;8.03;3.90;;;4.60;99.90;;;;;;5077582;28;20207;-89
2021/03/07 07:21:39;;;;;;;5.53;3.77;;;4.70;99.90;;;;;;5075843;28;20215;-89
2021/03/07 07:24:13;;;;;;;5.03;2.53;;;4.80;99.90;;;;;;5089193;28;20203;-89
2021/03/07 07:26:46;;;;;;;4.10;2.30;;;4.80;99.90;;;;;;5091984;28;20195;-90
2021/03/07 07:29:19;;;;;;;3.27;2.40;;;4.80;99.90;;;;;;5079251;28;20231;-90
2021/03/07 07:31:57;;;;;;;4.17;2.40;;;4.90;99.90;;;;;;5077033;28;20279;-89
2021/03/07 07:34:33;;;;;;;10.40;5.00;;;5.00;99.90;;;;;;5078018;28;20302;-89
2021/03/07 07:37:08;;;;;;;14.53;8.57;;;5.00;99.90;;;;;;5073478;28;20282;-88
2021/03/07 07:39:41;;;;;;;6.17;3.13;;;5.10;99.90;;;;;;5089690;28;20224;-87
2021/03/07 07:42:25;;;;;;;12.47;7.23;;;5.10;99.90;;;;;;5092441;28;20210;-87
2021/03/07 07:44:58;;;;;;;9.33;6.30;;;5.10;99.90;;;;;;5092184;28;20207;-89
2021/03/07 07:47:43;;;;;;;6.07;3.00;;;5.00;99.90;;;;;;5093187;28;20202;-89
2021/03/07 07:50:36;;;;;;;4.97;2.07;;;5.10;99.90;;;;;;5078668;28;20206;-89
2021/03/07 07:53:08;;;;;;;5.13;2.00;;;5.10;99.90;;;;;;5092465;28;20222;-90
2021/03/07 07:55:47;;;;;;;5.70;4.13;;;5.20;99.90;;;;;;5089970;28;20199;-89
2021/03/07 07:58:51;;;;;;;6.57;4.70;;;5.20;99.90;;;;;;5085779;28;20643;-89
2021/03/07 08:01:57;;;;;;;15.03;7.97;;;5.30;99.90;;;;;;5070443;28;20206;-88
2021/03/07 08:04:38;;;;;;;15.23;8.67;;;5.30;99.90;;;;;;5089636;28;20827;-88
2021/03/07 08:07:10;;;;;;;6.33;3.53;;;5.30;99.90;;;;;;5093847;28;20260;-88
2021/03/07 08:09:50;;;;;;;3.87;2.37;;;5.20;99.90;;;;;;5094530;28;20199;-93
2021/03/07 08:12:50;;;;;;;3.73;2.40;;;5.20;99.90;;;;;;5082446;28;20211;-88
2021/03/07 08:15:49;;;;;;;3.70;2.50;;;5.30;99.90;;;;;;5076662;28;20230;-89
2021/03/07 08:18:22;;;;;;;5.23;2.97;;;5.20;99.90;;;;;;5088602;28;20283;-88
2021/03/07 08:21:06;;;;;;;3.60;2.80;;;5.20;99.90;;;;;;5087470;28;20542;-89
2021/03/07 08:23:59;;;;;;;5.60;3.13;;;5.20;99.90;;;;;;5078255;28;20203;-89
2021/03/07 08:26:57;;;;;;;5.87;2.50;;;5.30;99.90;;;;;;5095708;28;20220;-90
2021/03/07 08:29:45;;;;;;;3.20;2.27;;;5.30;99.90;;;;;;5079895;28;20222;-91
2021/03/07 08:32:33;;;;;;;2.70;1.47;;;5.40;99.90;;;;;;5091694;28;20540;-90
2021/03/07 08:35:13;;;;;;;1.50;1.37;;;5.40;99.90;;;;;;5092761;28;20277;-90
2021/03/07 08:37:45;;;;;;;3.77;1.40;;;5.30;99.90;;;;;;5100927;28;20212;-90
2021/03/07 08:40:35;;;;;;;2.60;1.37;;;5.40;99.90;;;;;;5081769;28;20214;-89
2021/03/07 08:43:55;;;;;;;2.90;1.13;;;5.50;99.90;;;;;;5080007;28;20243;-90
2021/03/07 08:46:28;;;;;;;3.80;1.43;;;5.60;99.90;;;;;;5004581;28;20209;-89
2021/03/07 08:49:12;;;;;;;3.70;1.30;;;5.70;99.90;;;;;;5084672;28;20673;-90
2021/03/07 08:51:46;;;;;;;1.60;1.00;;;5.70;99.90;;;;;;5096348;28;20313;-90
2021/03/07 08:54:22;;;;;;;2.43;1.00;;;5.80;99.90;;;;;;5096161;28;20237;-90
2021/03/07 08:56:54;;;;;;;3.03;1.10;;;5.90;99.90;;;;;;5093516;28;20224;-90
2021/03/07 08:59:29;;;;;;;2.63;1.20;;;6.20;99.90;;;;;;5078032;28;20199;-88
2021/03/07 09:01:59;;;;;;;1.83;0.97;;;6.20;99.90;;;;;;5087851;28;20202;-89
2021/03/07 09:04:38;;;;;;;0.90;0.70;;;6.30;99.90;;;;;;5075393;28;20210;-89
2021/03/07 09:07:08;;;;;;;1.50;0.80;;;6.40;99.90;;;;;;5081879;28;20210;-89
2021/03/07 09:09:44;;;;;;;2.27;1.00;;;6.50;99.90;;;;;;5097474;28;20233;-90
2021/03/07 09:12:17;;;;;;;2.30;0.90;;;6.50;99.90;;;;;;5084589;28;20199;-89
2021/03/07 09:14:47;;;;;;;4.10;1.10;;;6.60;99.90;;;;;;5080804;28;20231;-88
2021/03/07 09:17:21;;;;;;;1.60;1.00;;;6.60;99.90;;;;;;5097346;28;20198;-89
2021/03/07 09:19:54;;;;;;;2.20;0.90;;;6.60;99.90;;;;;;5096824;28;20195;-89
2021/03/07 09:22:25;;;;;;;1.83;0.87;;;6.70;99.90;;;;;;5090660;28;20210;-89
2021/03/07 09:25:06;;;;;;;1.50;0.60;;;6.70;99.90;;;;;;5080228;28;20619;-89
2021/03/07 09:27:39;;;;;;;2.60;1.00;;;6.80;99.90;;;;;;5087338;28;20199;-89
2021/03/07 09:30:14;;;;;;;2.80;1.30;;;6.80;99.90;;;;;;5080820;28;20215;-90
2021/03/07 09:32:46;;;;;;;1.67;1.00;;;6.70;99.90;;;;;;5100268;28;20214;-90
2021/03/07 09:35:23;;;;;;;2.37;1.20;;;6.70;99.90;;;;;;5087718;28;20227;-91
2021/03/07 09:38:01;;;;;;;3.10;1.27;;;6.50;99.90;;;;;;5101445;28;20210;-92
2021/03/07 09:40:34;;;;;;;1.37;0.90;;;6.50;99.90;;;;;;5100064;28;20211;-91
2021/03/07 09:43:07;;;;;;;2.13;1.33;;;6.50;99.90;;;;;;5096186;28;20770;-92
2021/03/07 09:45:41;;;;;;;2.63;1.30;;;6.40;99.90;;;;;;5078981;28;20230;-91
2021/03/07 09:48:20;;;;;;;2.97;0.97;;;6.30;99.90;;;;;;5083400;28;20270;-91
2021/03/07 09:50:54;;;;;;;2.30;0.90;;;6.30;99.90;;;;;;5097532;28;20216;-92
2021/03/07 09:53:25;;;;;;;1.70;1.10;;;6.20;99.90;;;;;;5096179;28;20203;-92
2021/03/07 09:55:57;;;;;;;3.13;1.57;;;6.20;99.90;;;;;;5097132;28;20587;-92
2021/03/07 09:58:38;;;;;;;1.70;1.00;;;6.20;99.90;;;;;;5080044;28;20226;-86
2021/03/07 10:01:08;;;;;;;3.03;1.20;;;6.20;99.90;;;;;;5096166;28;20219;-87
2021/03/07 10:03:40;;;;;;;1.43;0.80;;;6.20;99.90;;;;;;5076561;28;20237;-88
2021/03/07 10:06:21;;;;;;;2.10;1.10;;;6.20;99.90;;;;;;5097298;28;20238;-88
2021/03/07 10:09:08;;;;;;;1.93;1.10;;;6.20;99.90;;;;;;5100465;28;20203;-88
2021/03/07 10:11:39;;;;;;;2.77;1.10;;;6.20;99.90;;;;;;5098281;28;20244;-87
2021/03/07 10:14:10;;;;;;;2.97;1.50;;;6.10;99.90;;;;;;5097048;28;20246;-87
2021/03/07 10:16:41;;;;;;;3.17;1.40;;;6.10;99.90;;;;;;5075097;28;20212;-87
2021/03/07 10:19:16;;;;;;;4.60;1.20;;;6.10;99.90;;;;;;5075944;28;20238;-89
2021/03/07 10:21:49;;;;;;;2.33;1.20;;;6.10;99.90;;;;;;5079822;28;20230;-87
2021/03/07 10:24:21;;;;;;;1.83;1.30;;;6.30;99.90;;;;;;5087594;28;20214;-87
2021/03/07 10:26:57;;;;;;;2.43;1.30;;;6.30;99.90;;;;;;5105333;28;20213;-87
2021/03/07 10:29:29;;;;;;;2.53;1.30;;;6.30;99.90;;;;;;5111974;28;20190;-91
2021/03/07 10:32:09;;;;;;;3.63;1.00;;;6.30;99.90;;;;;;5099483;28;20203;-91
2021/03/07 10:34:46;;;;;;;1.23;0.97;;;6.30;99.90;;;;;;5089366;28;20318;-91
2021/03/07 10:37:37;;;;;;;2.10;1.00;;;6.40;99.90;;;;;;5109664;28;20210;-92
2021/03/07 10:40:10;;;;;;;1.77;0.80;;;6.50;99.90;;;;;;5108333;28;20207;-91
2021/03/07 10:42:42;;;;;;;2.10;0.70;;;6.50;99.90;;;;;;5096456;28;20233;-90
2021/03/07 10:45:23;;;;;;;2.37;0.50;;;6.60;99.90;;;;;;5095533;28;20609;-91
2021/03/07 10:48:05;;;;;;;0.87;0.50;;;6.70;99.90;;;;;;5095933;28;20233;-91
2021/03/07 10:50:37;;;;;;;1.23;0.70;;;6.70;99.90;;;;;;5095075;28;20191;-91
2021/03/07 10:53:10;;;;;;;1.93;0.80;;;6.90;99.90;;;;;;5094714;28;20252;-92
2021/03/07 10:55:41;;;;;;;1.23;0.70;;;6.90;99.90;;;;;;5094910;28;20230;-90
2021/03/07 10:58:11;;;;;;;0.50;0.40;;;6.90;99.90;;;;;;5094786;28;20951;-91
2021/03/07 11:00:41;;;;;;;0.97;0.67;;;6.90;99.90;;;;;;5075176;28;20700;-89
2021/03/07 11:03:13;;;;;;;2.10;0.57;;;6.90;99.90;;;;;;5079647;28;20888;-89
2021/03/07 11:05:44;;;;;;;1.03;0.70;;;6.80;99.90;;;;;;5076810;28;20210;-89
2021/03/07 11:08:16;;;;;;;1.67;0.40;;;6.60;99.90;;;;;;5092937;28;20245;-89
2021/03/07 11:10:47;;;;;;;1.03;0.70;;;6.60;99.90;;;;;;5093843;28;20706;-89
2021/03/07 11:13:17;;;;;;;1.27;0.53;;;6.30;99.90;;;;;;5092755;28;20833;-90
2021/03/07 11:15:47;;;;;;;2.40;0.70;;;6.20;99.90;;;;;;5093338;28;20233;-90
2021/03/07 11:18:17;;;;;;;0.90;0.50;;;6.10;99.90;;;;;;5093105;28;20675;-89
2021/03/07 11:20:48;;;;;;;1.83;0.50;;;6.00;99.90;;;;;;5092939;28;20219;-89
2021/03/07 11:23:21;;;;;;;0.60;0.40;;;5.90;99.90;;;;;;5095443;28;20548;-89
2021/03/07 11:25:52;;;;;;;0.93;0.60;;;5.80;99.90;;;;;;5087545;28;20207;-90
2021/03/07 11:28:25;;;;;;;1.33;0.70;;;5.70;99.90;;;;;;5076232;28;20283;-89
2021/03/07 11:30:55;;;;;;;1.10;0.60;;;5.70;99.90;;;;;;5079252;28;20208;-90
2021/03/07 11:33:26;;;;;;;0.93;0.70;;;5.60;99.90;;;;;;5096233;28;20207;-89
2021/03/07 11:35:57;;;;;;;2.27;0.70;;;5.50;99.90;;;;;;5079935;28;20242;-89
2021/03/07 11:38:30;;;;;;;1.83;0.70;;;5.50;99.90;;;;;;5075710;28;20234;-89
2021/03/07 11:41:00;;;;;;;1.67;0.63;;;5.40;99.90;;;;;;5075968;28;20199;-87
2021/03/07 11:43:31;;;;;;;2.13;0.40;;;5.50;99.90;;;;;;5078608;28;20228;-89
2021/03/07 11:46:01;;;;;;;2.33;0.70;;;5.50;99.90;;;;;;5096922;28;20226;-89
2021/03/07 11:48:32;;;;;;;0.83;0.50;;;5.50;99.90;;;;;;5092167;28;20192;-89
2021/03/07 11:51:08;;;;;;;0.90;0.60;;;5.40;99.90;;;;;;5083689;28;20203;-89
2021/03/07 11:53:41;;;;;;;2.00;0.77;;;5.40;99.90;;;;;;5097563;28;20199;-89
2021/03/07 11:56:11;;;;;;;3.23;0.60;;;5.40;99.90;;;;;;5099992;28;20258;-89
2021/03/07 11:58:42;;;;;;;1.57;0.50;;;5.40;99.90;;;;;;5102036;28;20221;-88
2021/03/07 12:01:13;;;;;;;0.73;0.40;;;5.40;99.90;;;;;;5096970;28;20261;-87
2021/03/07 12:03:44;;;;;;;2.97;0.70;;;5.50;99.90;;;;;;5096959;28;20210;-89
2021/03/07 12:06:15;;;;;;;5.13;0.80;;;5.50;99.90;;;;;;5100392;28;20203;-87
2021/03/07 12:08:47;;;;;;;2.33;0.93;;;5.40;99.90;;;;;;5100486;28;20304;-86
2021/03/07 12:11:18;;;;;;;1.30;0.73;;;5.30;99.90;;;;;;5101680;28;20227;-87
2021/03/07 12:13:49;;;;;;;3.40;1.10;;;5.30;99.90;;;;;;5101098;28;20311;-87
2021/03/07 12:16:20;;;;;;;1.93;1.00;;;5.40;99.90;;;;;;5103543;28;20553;-87
2021/03/07 12:18:51;;;;;;;1.67;0.70;;;5.40;99.90;;;;;;5092725;28;20199;-87
2021/03/07 12:21:22;;;;;;;1.70;0.60;;;5.40;99.90;;;;;;5078426;28;20234;-88
2021/03/07 12:23:55;;;;;;;1.07;0.60;;;5.40;99.90;;;;;;5077266;28;20377;-90
2021/03/07 12:26:26;;;;;;;2.43;0.60;;;5.40;99.90;;;;;;5078937;28;20207;-90
2021/03/07 12:28:56;;;;;;;1.40;0.63;;;5.40;99.90;;;;;;5094632;28;20246;-90
2021/03/07 12:31:27;;;;;;;1.13;0.57;;;5.30;99.90;;;;;;5097965;28;20237;-90
2021/03/07 12:33:59;;;;;;;1.87;0.50;;;5.30;99.90;;;;;;5094628;28;20239;-92
2021/03/07 12:36:31;;;;;;;0.73;0.70;;;5.30;99.90;;;;;;5083243;28;20364;-92
2021/03/07 12:39:04;;;;;;;1.10;0.50;;;5.30;99.90;;;;;;5098042;28;20202;-91
2021/03/07 12:41:35;;;;;;;1.47;0.50;;;5.30;99.90;;;;;;5096803;28;20211;-91
2021/03/07 12:44:07;;;;;;;0.40;0.30;;;5.30;99.90;;;;;;5079085;28;20275;-91
2021/03/07 12:46:38;;;;;;;0.97;0.40;;;5.30;99.90;;;;;;5078877;28;20234;-91
2021/03/07 12:49:10;;;;;;;0.47;0.47;;;5.40;99.90;;;;;;5097319;28;20203;-92
2021/03/07 12:51:42;;;;;;;1.20;0.40;;;5.40;99.90;;;;;;5097080;28;20213;-90
2021/03/07 12:54:14;;;;;;;0.90;0.50;;;5.40;99.90;;;;;;5095548;28;20267;-92
2021/03/07 12:56:45;;;;;;;0.40;0.30;;;5.30;99.90;;;;;;5096328;28;20207;-92
2021/03/07 12:59:16;;;;;;;0.60;0.30;;;5.30;99.90;;;;;;5096157;28;20229;-90
2021/03/07 13:01:46;;;;;;;0.40;0.40;;;5.30;99.90;;;;;;5096531;28;20268;-89
2021/03/07 13:04:16;;;;;;;0.37;0.30;;;5.20;99.90;;;;;;5097701;28;20203;-89
2021/03/07 13:06:47;;;;;;;1.07;0.30;;;5.20;99.90;;;;;;5098417;28;20207;-90
2021/03/07 13:09:20;;;;;;;0.30;0.20;;;5.20;99.90;;;;;;5096335;28;20210;-89
2021/03/07 13:11:51;;;;;;;0.37;0.30;;;5.30;99.90;;;;;;5095993;28;20253;-88
2021/03/07 13:14:25;;;;;;;0.60;0.30;;;5.30;99.90;;;;;;5099613;28;20294;-92
2021/03/07 13:16:56;;;;;;;0.20;0.20;;;5.20;99.90;;;;;;5102001;28;20233;-92
2021/03/07 13:19:27;;;;;;;1.03;0.30;;;5.30;99.90;;;;;;5099911;28;20340;-91
2021/03/07 13:21:59;;;;;;;0.60;0.30;;;5.20;99.90;;;;;;5065059;28;20575;-92
2021/03/07 13:24:31;;;;;;;0.60;0.30;;;5.20;99.90;;;;;;5075133;28;20208;-91
2021/03/07 13:27:02;;;;;;;1.13;0.43;;;5.20;99.90;;;;;;5075488;28;20234;-91
2021/03/07 13:29:33;;;;;;;0.70;0.40;;;5.20;99.90;;;;;;5075978;28;20211;-90
2021/03/07 13:32:04;;;;;;;0.40;0.40;;;5.20;99.90;;;;;;5086531;28;20267;-89